Terminal Aerodrome Forecast
Issued by NWS Quad Cities IA IL

Home | Current Version | Previous Version | Text Only | Print | Product List | Glossary On
Versions: 1 2 3 4 5 6 7 8 9 10 11 12 13 14 15 16 17 18 19 20 21 22 23 24 25 26 27 28 29 30 31 32 33 34 35 36 37 38 39
725
FTUS43 KDVN 261730
TAFDBQ
TAF
KDBQ 261730Z 2618/2718 VRB04KT P6SM SCT090 BKN250
     FM270000 06004KT P6SM SCT090 BKN250
     FM270400 08005KT P6SM VCTS BKN050CB OVC090
      TEMPO 2705/2707 3SM TSRA BR BKN030CB
     FM270800 09005KT 6SM -RA BR OVC030
     FM271300 12005KT 6SM BR OVC030
     FM271600 18005KT P6SM OVC030=

USA.gov is the U.S. government's official web portal to all federal, state and local government web resources and services.